createdAt,value
2017-06-25T00:04:37.344Z,1002.1
2017-06-25T00:14:46.642Z,1001.9
2017-06-25T00:24:55.922Z,1001.8
2017-06-25T00:35:05.214Z,1001.4
2017-06-25T00:45:14.589Z,1001.2
2017-06-25T00:55:23.958Z,1001.2
2017-06-25T01:05:33.342Z,1001.2
2017-06-25T01:15:42.721Z,1001.2
2017-06-25T01:25:52.099Z,1000.7
2017-06-25T01:36:01.396Z,1000.3
2017-06-25T01:46:10.789Z,1000.2
2017-06-25T01:56:20.086Z,1000.5
2017-06-25T02:06:29.452Z,1000.5
2017-06-25T02:16:38.814Z,1000.3
2017-06-25T02:26:48.181Z,1000.3
2017-06-25T02:36:57.512Z,1000.5
2017-06-25T02:47:06.845Z,1000.5
2017-06-25T02:57:16.204Z,1000.4
2017-06-25T03:07:25.561Z,1000.2
2017-06-25T03:17:34.935Z,1000.3
2017-06-25T03:27:44.251Z,1000.4
2017-06-25T03:37:53.594Z,1000.6
2017-06-25T03:48:02.990Z,1000.6
2017-06-25T03:58:12.367Z,1000.3
2017-06-25T04:08:21.705Z,1000.2
2017-06-25T04:18:31.037Z,1000.2
2017-06-25T04:28:40.418Z,1000.4
2017-06-25T04:38:49.783Z,1000.3
2017-06-25T04:48:59.188Z,1000.5
2017-06-25T04:59:08.569Z,1000.9
2017-06-25T05:09:17.905Z,1001.5
2017-06-25T05:19:27.188Z,1001.4
2017-06-25T05:29:36.473Z,1001.4
2017-06-25T05:39:45.801Z,1001.3
2017-06-25T05:49:55.120Z,1002
2017-06-25T06:00:04.328Z,1000
2017-06-25T06:10:13.453Z,999.8
2017-06-25T06:20:22.546Z,999.7
2017-06-25T06:30:31.531Z,999.8
2017-06-25T06:40:40.450Z,999.8
2017-06-25T06:50:49.345Z,999.7
2017-06-25T07:00:58.256Z,999.8
2017-06-25T07:11:07.152Z,999.9
2017-06-25T07:21:15.985Z,999.7
2017-06-25T07:31:24.756Z,999.7
2017-06-25T07:41:33.568Z,999.6
2017-06-25T07:51:42.370Z,999.9
2017-06-25T08:01:51.127Z,999.9
2017-06-25T08:11:59.877Z,999.9
2017-06-25T08:22:08.839Z,997.5
2017-06-25T08:32:17.946Z,997.7
2017-06-25T08:42:27.049Z,998.5
2017-06-25T08:52:36.133Z,1001.2
2017-06-25T09:02:45.046Z,1000.4
2017-06-25T09:12:53.669Z,1000.5
2017-06-25T09:23:02.091Z,1000.7
2017-06-25T09:33:10.823Z,1000.7
2017-06-25T09:43:19.274Z,1000.7
2017-06-25T09:53:27.632Z,1000.9
2017-06-25T10:03:36.006Z,1000.7
2017-06-25T10:13:44.634Z,998.9
2017-06-25T10:23:53.384Z,1000.6
2017-06-25T10:34:02.353Z,999.8
2017-06-25T10:44:11.320Z,1000.3
2017-06-25T10:54:20.283Z,1003.5
2017-06-25T11:04:29.076Z,1003.8
2017-06-25T11:14:37.748Z,1001.9
2017-06-25T11:24:46.090Z,1001.7
2017-06-25T11:34:54.290Z,1002.2
2017-06-25T11:45:02.287Z,999.2
2017-06-25T11:55:10.411Z,999.4
2017-06-25T12:05:18.716Z,1001.8
2017-06-25T12:15:27.079Z,1001.7
2017-06-25T12:25:35.469Z,1001.9
2017-06-25T12:35:43.914Z,1001.5
2017-06-25T12:45:52.220Z,1002
2017-06-25T12:56:00.679Z,1002.3
2017-06-25T13:06:09.500Z,1002.1
2017-06-25T13:16:18.295Z,1000.8
2017-06-25T13:26:27.251Z,1002
2017-06-25T13:36:36.085Z,1004.9
2017-06-25T13:46:44.708Z,1001.8
2017-06-25T13:56:53.452Z,1000.4
2017-06-25T14:07:02.272Z,1000.5
2017-06-25T14:17:11.047Z,1002.6
2017-06-25T14:27:19.831Z,1004
2017-06-25T14:37:28.470Z,1004.9
2017-06-25T14:47:36.958Z,1002.3
2017-06-25T14:57:45.534Z,1001.3
2017-06-25T15:07:54.129Z,1003.1
2017-06-25T15:18:02.639Z,1003.2
2017-06-25T15:28:11.192Z,1002.3
2017-06-25T15:38:19.705Z,1003
2017-06-25T15:48:28.212Z,1004
2017-06-25T15:58:36.492Z,1002.1
2017-06-25T16:08:44.501Z,1002
2017-06-25T16:18:52.711Z,1002
2017-06-25T16:29:01.164Z,1001.9
2017-06-25T16:39:09.761Z,1002
2017-06-25T16:49:18.524Z,1001.8
2017-06-25T16:59:27.294Z,1002
2017-06-25T17:09:36.113Z,1001.9
2017-06-25T17:19:45.048Z,1001.9
2017-06-25T17:29:53.807Z,1001.7
2017-06-25T17:40:02.502Z,1001.8
2017-06-25T17:50:11.369Z,1001.7
2017-06-25T18:00:20.257Z,1001.6
2017-06-25T18:10:29.205Z,1001.7
2017-06-25T18:20:38.278Z,1001.6
2017-06-25T18:30:47.112Z,1001.5
2017-06-25T18:40:56.157Z,1001.5
2017-06-25T18:51:05.277Z,1001.5
2017-06-25T19:01:14.448Z,1001.4
2017-06-25T19:11:23.649Z,1001.6
2017-06-25T19:21:32.865Z,1001.5
2017-06-25T19:31:42.039Z,1001.5
2017-06-25T19:41:51.304Z,1001.6
2017-06-25T19:52:00.635Z,1001.6
2017-06-25T20:02:09.957Z,1001.5
2017-06-25T20:12:19.300Z,1001.5
2017-06-25T20:22:28.698Z,1001.6
2017-06-25T20:32:38.113Z,1001.6
2017-06-25T20:42:47.481Z,1001.6
2017-06-25T20:52:56.904Z,1001.4
2017-06-25T21:03:06.314Z,1001.5
2017-06-25T21:13:15.785Z,1001.4
2017-06-25T21:23:25.285Z,1001.4
2017-06-25T21:33:34.626Z,1001.4
2017-06-25T21:43:44.006Z,1001.2
2017-06-25T21:53:53.397Z,1001.3
2017-06-25T22:04:02.836Z,1001.1
2017-06-25T22:14:12.307Z,1001.1
2017-06-25T22:24:21.801Z,1001.1
2017-06-25T22:34:31.324Z,1001.2
2017-06-25T22:44:40.893Z,1001.2
2017-06-25T22:54:50.422Z,1001.1
2017-06-25T23:04:59.959Z,1000.9
2017-06-25T23:15:09.514Z,1000.7
2017-06-25T23:25:19.005Z,1000.6
2017-06-25T23:35:28.462Z,1000.6
2017-06-25T23:45:37.894Z,1000.6
2017-06-25T23:55:47.393Z,1000.6
